Time;durP1;ratioP1;P1;durP2;ratioP2;P2;SDS_P1;SDS_P2;PMS_P1;PMS_P2;Temp;Humidity;BMP_temperature;BMP_pressure;BME280_temperature;BME280_humidity;BME280_pressure;Samples;Min_cycle;Max_cycle;Signal;HPM_P1;HPM_P2
2021/12/24 00:01:59;;;;;;;;;;;;;;;;;;4950074;28;19998;-68
2021/12/24 00:04:25;;;;;;;;;;;;;;;;;;4937357;29;19973;-70
2021/12/24 00:06:51;;;;;;;;;;;;;;;;;;4935437;28;19954;-69
2021/12/24 00:09:25;;;;;;;;;;;;;;;;;;4937187;29;19958;-68
2021/12/24 00:11:51;;;;;;;;;;;;;;;;;;4950437;28;19919;-68
2021/12/24 00:14:17;;;;;;;;;;;;;;;;;;4936808;29;20347;-68
2021/12/24 00:16:48;;;;;;;;;;;;;;;;;;4940301;29;19915;-69
2021/12/24 00:35:47;;;;;;;;;;;;;;;;;;4926038;29;19929;-68
2021/12/24 00:38:13;;;;;;;;;;;;;;;;;;4936708;28;19915;-70
2021/12/24 00:40:39;;;;;;;;;;;;;;;;;;4935890;29;19919;-69
2021/12/24 00:43:05;;;;;;;;;;;;;;;;;;4942199;28;19989;-68
2021/12/24 00:45:31;;;;;;;;;;;;;;;;;;4935134;28;19947;-69
2021/12/24 00:47:57;;;;;;;;;;;;;;;;;;4936069;29;19947;-68
2021/12/24 00:50:24;;;;;;;;;;;;;;;;;;4935938;29;20002;-68
2021/12/24 00:53:01;;;;;;;;;;;;;;;;;;4935907;29;20579;-69
2021/12/24 00:55:27;;;;;;;;;;;;;;;;;;4934091;29;20128;-69
2021/12/24 00:57:53;;;;;;;;;;;;;;;;;;4941540;29;20002;-69
2021/12/24 01:00:19;;;;;;;;;;;;;;;;;;4932012;29;20521;-69
2021/12/24 01:02:45;;;;;;;;;;;;;;;;;;4935530;29;20553;-70
2021/12/24 01:05:11;;;;;;;;;;;;;;;;;;4934610;29;20504;-68
2021/12/24 01:07:37;;;;;;;;;;;;;;;;;;4932609;28;19918;-68
2021/12/24 01:10:03;;;;;;;;;;;;;;;;;;4934976;28;20347;-69
2021/12/24 01:12:29;;;;;;;;;;;;;;;;;;4950839;28;19915;-68
2021/12/24 01:14:55;;;;;;;;;;;;;;;;;;4949349;28;19986;-68
2021/12/24 01:25:38;;;;;;;;;;;;;;;;;;4933809;29;20390;-68
2021/12/24 01:38:35;;;;;;;;;;;;;;;;;;4931110;29;20327;-68
2021/12/24 01:43:27;;;;;;;;;;;;;;;;;;4935385;29;19922;-68
2021/12/24 01:45:52;;;;;;;;;;;;;;;;;;4929255;28;19969;-70
2021/12/24 01:48:18;;;;;;;;;;;;;;;;;;4953291;28;19950;-68
2021/12/24 01:50:47;;;;;;;;;;;;;;;;;;4951450;28;19965;-68
2021/12/24 01:53:13;;;;;;;;;;;;;;;;;;4952561;28;19915;-68
2021/12/24 01:55:39;;;;;;;;;;;;;;;;;;4936845;28;19981;-69
2021/12/24 01:58:05;;;;;;;;;;;;;;;;;;4934505;29;19950;-69
2021/12/24 02:00:32;;;;;;;;;;;;;;;;;;4933056;29;20009;-68
2021/12/24 02:02:57;;;;;;;;;;;;;;;;;;4940144;28;19926;-68
2021/12/24 02:05:23;;;;;;;;;;;;;;;;;;4939822;29;19946;-68
2021/12/24 02:07:49;;;;;;;;;;;;;;;;;;4941042;28;19922;-68
2021/12/24 02:10:15;;;;;;;;;;;;;;;;;;4939290;29;19958;-69
2021/12/24 02:12:41;;;;;;;;;;;;;;;;;;4952912;28;19957;-68
2021/12/24 02:15:10;;;;;;;;;;;;;;;;;;4930009;29;19923;-68
2021/12/24 02:28:29;;;;;;;;;;;;;;;;;;4933426;29;19921;-68
2021/12/24 02:30:55;;;;;;;;;;;;;;;;;;4933990;29;19930;-68
2021/12/24 02:33:21;;;;;;;;;;;;;;;;;;4934338;29;19954;-68
2021/12/24 02:35:47;;;;;;;;;;;;;;;;;;4932824;28;19963;-68
2021/12/24 02:38:13;;;;;;;;;;;;;;;;;;4934023;29;19982;-68
2021/12/24 02:40:39;;;;;;;;;;;;;;;;;;4933200;28;20376;-68
2021/12/24 02:43:06;;;;;;;;;;;;;;;;;;4933483;29;20392;-68
2021/12/24 02:45:33;;;;;;;;;;;;;;;;;;4933290;29;19919;-69
2021/12/24 02:55:57;;;;;;;;;;;;;;;;;;4931388;29;19941;-69
2021/12/24 02:58:23;;;;;;;;;;;;;;;;;;4931691;28;20379;-68
2021/12/24 03:00:49;;;;;;;;;;;;;;;;;;4933339;28;20001;-70
2021/12/24 03:03:15;;;;;;;;;;;;;;;;;;4933476;29;19965;-68
2021/12/24 03:05:41;;;;;;;;;;;;;;;;;;4932021;29;19961;-67
2021/12/24 03:08:07;;;;;;;;;;;;;;;;;;4947638;28;20295;-68
2021/12/24 03:10:35;;;;;;;;;;;;;;;;;;4939985;28;20449;-68
2021/12/24 03:13:01;;;;;;;;;;;;;;;;;;4926340;29;20327;-68
2021/12/24 03:15:27;;;;;;;;;;;;;;;;;;4932737;28;20006;-68
2021/12/24 03:17:56;;;;;;;;;;;;;;;;;;4926156;28;20394;-68
2021/12/24 03:20:22;;;;;;;;;;;;;;;;;;4947821;28;19922;-68
2021/12/24 03:23:09;;;;;;;;;;;;;;;;;;4948169;28;20010;-69
2021/12/24 03:25:35;;;;;;;;;;;;;;;;;;4931535;29;19915;-68
2021/12/24 03:28:01;;;;;;;;;;;;;;;;;;4931574;28;19922;-68
2021/12/24 03:30:27;;;;;;;;;;;;;;;;;;4920855;29;19966;-67
2021/12/24 03:32:53;;;;;;;;;;;;;;;;;;4933146;28;19919;-68
2021/12/24 03:35:18;;;;;;;;;;;;;;;;;;4931745;29;19962;-69
2021/12/24 03:37:44;;;;;;;;;;;;;;;;;;4933491;28;19922;-68
2021/12/24 03:40:10;;;;;;;;;;;;;;;;;;4931924;29;19965;-68
2021/12/24 03:42:39;;;;;;;;;;;;;;;;;;4933244;29;19957;-68
2021/12/24 03:45:19;;;;;;;;;;;;;;;;;;4931774;28;20430;-68
2021/12/24 03:47:52;;;;;;;;;;;;;;;;;;4934951;28;19915;-68
2021/12/24 03:50:18;;;;;;;;;;;;;;;;;;4933373;29;20272;-68
2021/12/24 03:55:28;;;;;;;;;;;;;;;;;;4930993;29;20010;-68
2021/12/24 03:57:54;;;;;;;;;;;;;;;;;;4932884;28;20017;-68
2021/12/24 04:00:20;;;;;;;;;;;;;;;;;;4933212;29;19969;-68
2021/12/24 04:02:46;;;;;;;;;;;;;;;;;;4945595;28;20013;-69
2021/12/24 04:05:12;;;;;;;;;;;;;;;;;;4933290;28;20009;-68
2021/12/24 04:07:38;;;;;;;;;;;;;;;;;;4941669;28;19915;-68
2021/12/24 04:10:12;;;;;;;;;;;;;;;;;;4951519;28;20039;-69
2021/12/24 04:12:38;;;;;;;;;;;;;;;;;;4936549;28;19925;-68
2021/12/24 04:15:05;;;;;;;;;;;;;;;;;;4948201;28;19923;-68
2021/12/24 04:17:32;;;;;;;;;;;;;;;;;;4937182;28;19915;-68
2021/12/24 04:25:21;;;;;;;;;;;;;;;;;;4930071;29;19922;-68
2021/12/24 04:27:49;;;;;;;;;;;;;;;;;;4933756;29;19915;-68
2021/12/24 04:30:19;;;;;;;;;;;;;;;;;;4936081;29;20295;-68
2021/12/24 04:35:31;;;;;;;;;;;;;;;;;;4930401;29;19975;-68
2021/12/24 04:38:13;;;;;;;;;;;;;;;;;;4935981;28;19919;-68
2021/12/24 04:51:43;;;;;;;;;;;;;;;;;;4934991;29;20414;-68
2021/12/24 05:05:21;;;;;;;;;;;;;;;;;;4934924;28;19915;-68
2021/12/24 05:10:16;;;;;;;;;;;;;;;;;;4938496;29;20328;-68
2021/12/24 05:12:42;;;;;;;;;;;;;;;;;;4934944;29;19921;-68
2021/12/24 05:15:10;;;;;;;;;;;;;;;;;;4934529;29;20033;-68
2021/12/24 05:18:07;;;;;;;;;;;;;;;;;;4935379;28;19982;-67
2021/12/24 05:23:18;;;;;;;;;;;;;;;;;;4936064;29;19922;-67
2021/12/24 05:25:44;;;;;;;;;;;;;;;;;;4932802;28;19946;-68
2021/12/24 05:28:10;;;;;;;;;;;;;;;;;;4934934;28;19970;-68
2021/12/24 05:30:36;;;;;;;;;;;;;;;;;;4950271;28;19921;-67
2021/12/24 05:33:02;;;;;;;;;;;;;;;;;;4935708;29;20001;-68
2021/12/24 05:35:27;;;;;;;;;;;;;;;;;;4934351;28;20012;-68
2021/12/24 05:37:53;;;;;;;;;;;;;;;;;;4935029;29;19918;-68
2021/12/24 05:40:19;;;;;;;;;;;;;;;;;;4932714;28;19938;-68
2021/12/24 05:42:45;;;;;;;;;;;;;;;;;;4953440;28;19958;-68
2021/12/24 05:45:11;;;;;;;;;;;;;;;;;;4946135;28;19951;-68
2021/12/24 05:47:37;;;;;;;;;;;;;;;;;;4946738;29;19970;-68
2021/12/24 05:50:03;;;;;;;;;;;;;;;;;;4933876;29;19987;-67
2021/12/24 05:52:29;;;;;;;;;;;;;;;;;;4936277;29;19915;-68
2021/12/24 05:54:55;;;;;;;;;;;;;;;;;;4932405;29;19978;-67
2021/12/24 05:57:21;;;;;;;;;;;;;;;;;;4934348;29;19956;-67
2021/12/24 05:59:47;;;;;;;;;;;;;;;;;;4936630;29;19954;-68
2021/12/24 06:02:13;;;;;;;;;;;;;;;;;;4935929;28;19953;-68
2021/12/24 06:04:39;;;;;;;;;;;;;;;;;;4934156;28;19969;-67
2021/12/24 06:07:05;;;;;;;;;;;;;;;;;;4947294;28;19962;-68
2021/12/24 06:09:31;;;;;;;;;;;;;;;;;;4934495;28;20038;-67
2021/12/24 06:11:57;;;;;;;;;;;;;;;;;;4936296;29;19915;-68
2021/12/24 06:14:23;;;;;;;;;;;;;;;;;;4941427;29;19915;-68
2021/12/24 06:17:03;;;;;;;;;;;;;;;;;;4938330;28;19954;-68
2021/12/24 06:19:29;;;;;;;;;;;;;;;;;;4933083;29;20326;-67
2021/12/24 06:21:55;;;;;;;;;;;;;;;;;;4949006;28;19975;-67
2021/12/24 06:24:21;;;;;;;;;;;;;;;;;;4934719;28;19915;-68
2021/12/24 06:26:47;;;;;;;;;;;;;;;;;;4924964;28;19961;-67
2021/12/24 06:29:13;;;;;;;;;;;;;;;;;;4934855;29;19957;-67
2021/12/24 06:31:39;;;;;;;;;;;;;;;;;;4942150;28;19922;-67
2021/12/24 06:34:05;;;;;;;;;;;;;;;;;;4949076;28;19950;-67
2021/12/24 06:36:35;;;;;;;;;;;;;;;;;;4948059;28;19919;-68
2021/12/24 06:39:01;;;;;;;;;;;;;;;;;;4941882;28;19915;-67
2021/12/24 06:41:27;;;;;;;;;;;;;;;;;;4932673;28;20431;-68
2021/12/24 06:43:54;;;;;;;;;;;;;;;;;;4952005;28;20538;-68
2021/12/24 06:46:20;;;;;;;;;;;;;;;;;;4934256;29;19957;-67
2021/12/24 06:48:46;;;;;;;;;;;;;;;;;;4944048;29;19953;-68
2021/12/24 06:51:12;;;;;;;;;;;;;;;;;;4934009;29;19950;-68
2021/12/24 06:53:38;;;;;;;;;;;;;;;;;;4933748;29;19919;-68
2021/12/24 06:56:03;;;;;;;;;;;;;;;;;;4935882;28;19963;-67
2021/12/24 06:58:29;;;;;;;;;;;;;;;;;;4938601;28;19915;-68
2021/12/24 07:00:55;;;;;;;;;;;;;;;;;;4935485;29;19955;-67
2021/12/24 07:03:21;;;;;;;;;;;;;;;;;;4939042;28;19992;-68
2021/12/24 07:05:47;;;;;;;;;;;;;;;;;;4943861;28;19966;-67
2021/12/24 07:08:13;;;;;;;;;;;;;;;;;;4932132;29;19946;-68
2021/12/24 07:10:39;;;;;;;;;;;;;;;;;;4947102;28;19997;-68
2021/12/24 07:13:05;;;;;;;;;;;;;;;;;;4934798;29;19954;-68
2021/12/24 07:15:31;;;;;;;;;;;;;;;;;;4932077;29;19970;-67
2021/12/24 07:17:57;;;;;;;;;;;;;;;;;;4933613;28;19958;-67
2021/12/24 07:20:23;;;;;;;;;;;;;;;;;;4945604;28;19915;-68
2021/12/24 07:22:49;;;;;;;;;;;;;;;;;;4941660;28;19915;-67
2021/12/24 07:25:15;;;;;;;;;;;;;;;;;;4925790;29;19998;-67
2021/12/24 07:27:41;;;;;;;;;;;;;;;;;;4933803;29;19958;-67
2021/12/24 07:30:08;;;;;;;;;;;;;;;;;;4936189;29;19953;-68
2021/12/24 07:32:34;;;;;;;;;;;;;;;;;;4948446;28;20005;-68
2021/12/24 07:35:00;;;;;;;;;;;;;;;;;;4935047;28;20009;-68
2021/12/24 07:37:26;;;;;;;;;;;;;;;;;;4941733;28;19967;-68
2021/12/24 07:39:52;;;;;;;;;;;;;;;;;;4941309;28;19991;-68
2021/12/24 07:42:18;;;;;;;;;;;;;;;;;;4933790;28;19915;-68
2021/12/24 07:44:44;;;;;;;;;;;;;;;;;;4945881;28;20046;-68
2021/12/24 07:47:16;;;;;;;;;;;;;;;;;;4941308;29;19971;-67
2021/12/24 07:49:44;;;;;;;;;;;;;;;;;;4940439;29;19922;-68
2021/12/24 07:52:12;;;;;;;;;;;;;;;;;;4947259;28;19918;-68
2021/12/24 07:54:38;;;;;;;;;;;;;;;;;;4942858;28;19922;-68
2021/12/24 07:57:03;;;;;;;;;;;;;;;;;;4935303;29;20399;-68
2021/12/24 07:59:30;;;;;;;;;;;;;;;;;;4937228;29;19922;-67
2021/12/24 08:01:56;;;;;;;;;;;;;;;;;;4934587;28;19930;-68
2021/12/24 08:04:22;;;;;;;;;;;;;;;;;;4937426;28;20453;-68
2021/12/24 08:06:48;;;;;;;;;;;;;;;;;;4967422;28;19915;-68
2021/12/24 08:09:14;;;;;;;;;;;;;;;;;;4939750;28;19974;-68
2021/12/24 08:11:40;;;;;;;;;;;;;;;;;;4939258;28;19984;-67
2021/12/24 08:14:06;;;;;;;;;;;;;;;;;;4944426;28;19914;-68
2021/12/24 08:16:32;;;;;;;;;;;;;;;;;;4949337;28;19918;-68
2021/12/24 08:18:58;;;;;;;;;;;;;;;;;;4939033;28;19969;-68
2021/12/24 08:21:24;;;;;;;;;;;;;;;;;;4955365;28;19915;-68
2021/12/24 08:23:50;;;;;;;;;;;;;;;;;;4955711;28;20025;-68
2021/12/24 08:26:16;;;;;;;;;;;;;;;;;;5039422;23;19931;-67
2021/12/24 08:28:42;;;;;;;;;;;;;;;;;;4955231;28;19921;-68
2021/12/24 08:31:08;;;;;;;;;;;;;;;;;;4981202;28;19914;-68
2021/12/24 08:33:35;;;;;;;;;;;;;;;;;;4956598;28;19946;-68
2021/12/24 08:36:01;;;;;;;;;;;;;;;;;;4962703;28;19953;-67
2021/12/24 08:38:27;;;;;;;;;;;;;;;;;;4958718;28;20376;-67
2021/12/24 08:40:53;;;;;;;;;;;;;;;;;;4955593;28;20470;-68
2021/12/24 08:43:18;;;;;;;;;;;;;;;;;;4969333;28;20427;-68
2021/12/24 08:45:44;;;;;;;;;;;;;;;;;;4955873;28;20396;-68
2021/12/24 08:48:10;;;;;;;;;;;;;;;;;;4978499;28;20396;-68
2021/12/24 08:50:36;;;;;;;;;;;;;;;;;;4962967;28;19976;-67
2021/12/24 08:53:02;;;;;;;;;;;;;;;;;;4959346;28;19914;-68
2021/12/24 08:55:28;;;;;;;;;;;;;;;;;;4960673;28;19950;-68
2021/12/24 08:57:54;;;;;;;;;;;;;;;;;;4980440;28;19921;-68
2021/12/24 09:00:21;;;;;;;;;;;;;;;;;;4957799;28;19946;-68
2021/12/24 09:02:47;;;;;;;;;;;;;;;;;;4955082;28;19977;-68
2021/12/24 09:05:13;;;;;;;;;;;;;;;;;;4970355;28;20354;-68
2021/12/24 09:07:40;;;;;;;;;;;;;;;;;;4953423;28;20419;-68
2021/12/24 09:10:06;;;;;;;;;;;;;;;;;;4948168;28;20407;-68
2021/12/24 09:12:32;;;;;;;;;;;;;;;;;;4955536;28;19949;-68
2021/12/24 09:14:58;;;;;;;;;;;;;;;;;;4964529;28;19957;-67
2021/12/24 09:17:25;;;;;;;;;;;;;;;;;;4971250;28;20351;-68
2021/12/24 09:19:52;;;;;;;;;;;;;;;;;;4950748;28;19962;-68
2021/12/24 09:22:19;;;;;;;;;;;;;;;;;;4947136;28;20447;-68
2021/12/24 09:24:45;;;;;;;;;;;;;;;;;;4957138;28;19921;-68
2021/12/24 09:27:11;;;;;;;;;;;;;;;;;;4968796;28;19922;-68
2021/12/24 09:29:36;;;;;;;;;;;;;;;;;;4960139;28;19954;-67
2021/12/24 09:32:02;;;;;;;;;;;;;;;;;;4956760;28;20000;-67
2021/12/24 09:34:28;;;;;;;;;;;;;;;;;;4952940;28;19914;-68
2021/12/24 09:36:54;;;;;;;;;;;;;;;;;;4952386;28;20005;-68
2021/12/24 09:39:20;;;;;;;;;;;;;;;;;;4950572;28;19953;-68
2021/12/24 09:41:46;;;;;;;;;;;;;;;;;;4967597;28;20466;-67
2021/12/24 09:44:13;;;;;;;;;;;;;;;;;;4953805;28;19961;-68
2021/12/24 09:46:42;;;;;;;;;;;;;;;;;;4953043;28;19919;-67
2021/12/24 09:49:08;;;;;;;;;;;;;;;;;;4971358;28;19914;-68
2021/12/24 09:51:34;;;;;;;;;;;;;;;;;;4970744;28;19961;-66
2021/12/24 09:53:59;;;;;;;;;;;;;;;;;;4951893;28;20288;-66
2021/12/24 09:56:25;;;;;;;;;;;;;;;;;;4951514;28;20352;-67
2021/12/24 09:58:51;;;;;;;;;;;;;;;;;;4967996;28;20359;-66
2021/12/24 10:01:17;;;;;;;;;;;;;;;;;;4944872;28;19987;-67
2021/12/24 10:03:43;;;;;;;;;;;;;;;;;;4951298;28;19957;-68
2021/12/24 10:06:09;;;;;;;;;;;;;;;;;;4963823;28;19946;-66
2021/12/24 10:08:35;;;;;;;;;;;;;;;;;;4951453;28;19946;-67
2021/12/24 10:11:02;;;;;;;;;;;;;;;;;;4949387;28;20213;-68
2021/12/24 10:13:27;;;;;;;;;;;;;;;;;;4953630;28;20026;-67
2021/12/24 10:15:53;;;;;;;;;;;;;;;;;;4952237;29;20499;-67
2021/12/24 10:18:19;;;;;;;;;;;;;;;;;;4951852;28;20051;-67
2021/12/24 10:20:45;;;;;;;;;;;;;;;;;;4948985;28;20381;-67
2021/12/24 10:23:11;;;;;;;;;;;;;;;;;;4966881;28;20451;-67
2021/12/24 10:25:37;;;;;;;;;;;;;;;;;;4958745;28;20391;-67
2021/12/24 10:28:03;;;;;;;;;;;;;;;;;;4952063;28;19958;-67
2021/12/24 10:30:32;;;;;;;;;;;;;;;;;;4961020;28;20024;-67
2021/12/24 10:32:58;;;;;;;;;;;;;;;;;;4947198;28;19980;-66
2021/12/24 10:35:24;;;;;;;;;;;;;;;;;;4952195;29;20384;-66
2021/12/24 10:37:50;;;;;;;;;;;;;;;;;;4954872;28;19921;-67
2021/12/24 10:40:17;;;;;;;;;;;;;;;;;;4967966;28;20064;-67
2021/12/24 10:42:44;;;;;;;;;;;;;;;;;;4950661;28;20001;-67
2021/12/24 10:45:10;;;;;;;;;;;;;;;;;;4948081;28;19937;-67
2021/12/24 10:47:38;;;;;;;;;;;;;;;;;;4950978;28;19919;-66
2021/12/24 10:55:20;;;;;;;;;;;;;;;;;;4946709;28;19941;-67
2021/12/24 10:57:46;;;;;;;;;;;;;;;;;;4952844;28;19977;-67
2021/12/24 11:00:12;;;;;;;;;;;;;;;;;;4946187;28;19981;-66
2021/12/24 11:02:38;;;;;;;;;;;;;;;;;;4949596;28;19925;-67
2021/12/24 11:05:04;;;;;;;;;;;;;;;;;;4950117;28;20009;-67
2021/12/24 11:07:30;;;;;;;;;;;;;;;;;;4967174;28;20015;-68
2021/12/24 11:09:56;;;;;;;;;;;;;;;;;;4950592;28;20014;-67
2021/12/24 11:12:22;;;;;;;;;;;;;;;;;;4950427;28;19983;-67
2021/12/24 11:14:48;;;;;;;;;;;;;;;;;;4949493;28;19950;-66
2021/12/24 11:17:14;;;;;;;;;;;;;;;;;;4950988;28;19957;-67
2021/12/24 11:19:40;;;;;;;;;;;;;;;;;;4947244;29;19977;-67
2021/12/24 11:22:06;;;;;;;;;;;;;;;;;;4951469;28;19949;-67
2021/12/24 11:24:32;;;;;;;;;;;;;;;;;;4950050;28;19949;-67
2021/12/24 11:26:58;;;;;;;;;;;;;;;;;;4963636;28;19922;-67
2021/12/24 11:29:23;;;;;;;;;;;;;;;;;;4949008;28;19921;-67
2021/12/24 11:31:49;;;;;;;;;;;;;;;;;;4949852;28;19949;-68
2021/12/24 11:34:15;;;;;;;;;;;;;;;;;;4950853;28;20482;-67
2021/12/24 11:36:41;;;;;;;;;;;;;;;;;;4966505;28;19984;-67
2021/12/24 11:39:07;;;;;;;;;;;;;;;;;;4964686;28;19996;-68
2021/12/24 11:41:33;;;;;;;;;;;;;;;;;;4949104;28;20009;-67
2021/12/24 11:44:02;;;;;;;;;;;;;;;;;;4951320;28;19915;-67
2021/12/24 11:46:28;;;;;;;;;;;;;;;;;;4952155;28;20401;-67
2021/12/24 11:48:54;;;;;;;;;;;;;;;;;;4961896;28;20001;-67
2021/12/24 11:51:20;;;;;;;;;;;;;;;;;;4951111;29;19990;-67
2021/12/24 11:53:46;;;;;;;;;;;;;;;;;;4951016;28;20378;-68
2021/12/24 11:56:12;;;;;;;;;;;;;;;;;;4941718;28;19927;-67
2021/12/24 11:58:38;;;;;;;;;;;;;;;;;;4950494;28;20381;-67
2021/12/24 12:01:04;;;;;;;;;;;;;;;;;;4949422;28;19950;-68
2021/12/24 12:03:30;;;;;;;;;;;;;;;;;;4964938;28;19914;-67
2021/12/24 12:05:56;;;;;;;;;;;;;;;;;;4950213;28;19915;-67
2021/12/24 12:08:22;;;;;;;;;;;;;;;;;;4951598;28;19970;-68
2021/12/24 12:10:48;;;;;;;;;;;;;;;;;;4944619;28;19946;-67
2021/12/24 12:13:14;;;;;;;;;;;;;;;;;;4947760;28;19965;-67
2021/12/24 12:15:39;;;;;;;;;;;;;;;;;;4947853;28;20005;-67
2021/12/24 12:18:05;;;;;;;;;;;;;;;;;;4946479;28;19967;-67
2021/12/24 12:20:39;;;;;;;;;;;;;;;;;;4947945;28;19949;-67
2021/12/24 12:23:08;;;;;;;;;;;;;;;;;;4937222;29;19915;-68
2021/12/24 12:25:34;;;;;;;;;;;;;;;;;;4949156;28;20374;-67
2021/12/24 12:28:00;;;;;;;;;;;;;;;;;;4951466;28;20025;-67
2021/12/24 12:30:26;;;;;;;;;;;;;;;;;;4957789;28;19937;-67
2021/12/24 12:32:52;;;;;;;;;;;;;;;;;;4967055;28;20872;-67
2021/12/24 12:35:18;;;;;;;;;;;;;;;;;;4948512;28;20173;-67
2021/12/24 12:37:44;;;;;;;;;;;;;;;;;;4951410;28;20431;-67
2021/12/24 12:40:10;;;;;;;;;;;;;;;;;;4949480;28;20320;-67
2021/12/24 12:42:36;;;;;;;;;;;;;;;;;;4947910;28;19954;-67
2021/12/24 12:45:02;;;;;;;;;;;;;;;;;;4953245;28;19957;-67
2021/12/24 12:47:28;;;;;;;;;;;;;;;;;;4966592;28;20000;-67
2021/12/24 12:49:55;;;;;;;;;;;;;;;;;;4964630;28;19918;-67
2021/12/24 12:52:22;;;;;;;;;;;;;;;;;;4950350;28;20332;-67
2021/12/24 12:54:48;;;;;;;;;;;;;;;;;;4947607;28;19926;-67
2021/12/24 12:57:14;;;;;;;;;;;;;;;;;;4965483;28;19921;-67
2021/12/24 12:59:40;;;;;;;;;;;;;;;;;;4954191;28;19950;-68
2021/12/24 13:02:06;;;;;;;;;;;;;;;;;;4955697;28;19937;-66
2021/12/24 13:04:32;;;;;;;;;;;;;;;;;;4962606;28;20034;-67
2021/12/24 13:06:58;;;;;;;;;;;;;;;;;;4954456;28;20300;-67
2021/12/24 13:09:24;;;;;;;;;;;;;;;;;;4954846;28;20363;-66
2021/12/24 13:11:50;;;;;;;;;;;;;;;;;;4960496;28;19957;-67
2021/12/24 13:14:16;;;;;;;;;;;;;;;;;;4962206;28;19917;-67
2021/12/24 13:16:54;;;;;;;;;;;;;;;;;;4963484;28;19922;-67
2021/12/24 13:24:17;;;;;;;;;;;;;;;;;;4960391;28;20278;-66
2021/12/24 13:26:43;;;;;;;;;;;;;;;;;;4951150;28;19965;-67
2021/12/24 13:29:13;;;;;;;;;;;;;;;;;;4950515;28;20017;-67
2021/12/24 13:31:39;;;;;;;;;;;;;;;;;;4953863;28;20005;-67
2021/12/24 13:34:05;;;;;;;;;;;;;;;;;;4968485;28;20010;-67
2021/12/24 13:36:31;;;;;;;;;;;;;;;;;;4942545;28;19950;-67
2021/12/24 13:38:57;;;;;;;;;;;;;;;;;;4944981;28;20228;-67
2021/12/24 13:41:22;;;;;;;;;;;;;;;;;;4960167;28;19973;-67
2021/12/24 13:43:48;;;;;;;;;;;;;;;;;;4969611;28;19953;-66
2021/12/24 13:46:15;;;;;;;;;;;;;;;;;;4950405;28;19964;-67
2021/12/24 13:49:40;;;;;;;;;;;;;;;;;;4952488;28;19950;-67
2021/12/24 13:56:39;;;;;;;;;;;;;;;;;;4948748;28;20220;-67
2021/12/24 13:59:05;;;;;;;;;;;;;;;;;;4947513;28;19993;-67
2021/12/24 14:01:31;;;;;;;;;;;;;;;;;;4950678;28;19966;-67
2021/12/24 14:03:57;;;;;;;;;;;;;;;;;;4950136;28;19915;-67
2021/12/24 14:06:23;;;;;;;;;;;;;;;;;;4955007;28;20047;-67
2021/12/24 14:08:49;;;;;;;;;;;;;;;;;;4948089;28;19954;-67
2021/12/24 14:11:18;;;;;;;;;;;;;;;;;;4954613;28;19957;-68
2021/12/24 14:13:49;;;;;;;;;;;;;;;;;;4947053;28;20308;-67
2021/12/24 14:16:38;;;;;;;;;;;;;;;;;;4949649;28;19922;-67
2021/12/24 14:19:03;;;;;;;;;;;;;;;;;;4948586;28;19922;-67
2021/12/24 14:23:55;;;;;;;;;;;;;;;;;;4950896;28;20376;-67
2021/12/24 14:26:21;;;;;;;;;;;;;;;;;;4951586;28;20468;-66
2021/12/24 14:28:47;;;;;;;;;;;;;;;;;;4964022;28;19923;-67
2021/12/24 14:31:13;;;;;;;;;;;;;;;;;;4970460;28;19954;-67
2021/12/24 14:33:39;;;;;;;;;;;;;;;;;;4954174;28;19946;-67
2021/12/24 14:36:08;;;;;;;;;;;;;;;;;;4951777;28;19961;-67
2021/12/24 14:38:34;;;;;;;;;;;;;;;;;;4952146;28;20273;-67
2021/12/24 14:41:00;;;;;;;;;;;;;;;;;;4954465;28;19961;-67
2021/12/24 14:43:26;;;;;;;;;;;;;;;;;;4952218;28;20398;-66
2021/12/24 14:45:52;;;;;;;;;;;;;;;;;;4949347;28;19969;-66
2021/12/24 14:48:20;;;;;;;;;;;;;;;;;;4950074;28;20393;-67
2021/12/24 14:50:46;;;;;;;;;;;;;;;;;;4941245;28;19922;-67
2021/12/24 14:53:12;;;;;;;;;;;;;;;;;;4952522;28;19929;-67
2021/12/24 14:55:38;;;;;;;;;;;;;;;;;;4944375;28;19927;-67
2021/12/24 14:58:05;;;;;;;;;;;;;;;;;;4951989;28;19965;-66
2021/12/24 15:00:31;;;;;;;;;;;;;;;;;;4950332;28;19961;-66
2021/12/24 15:02:57;;;;;;;;;;;;;;;;;;4947981;28;20317;-66
2021/12/24 15:05:23;;;;;;;;;;;;;;;;;;4952604;28;19965;-67
2021/12/24 15:07:49;;;;;;;;;;;;;;;;;;4947594;28;20002;-67
2021/12/24 15:10:17;;;;;;;;;;;;;;;;;;4960893;28;19956;-67
2021/12/24 15:12:45;;;;;;;;;;;;;;;;;;4952547;28;19943;-67
2021/12/24 15:15:11;;;;;;;;;;;;;;;;;;4948532;28;20420;-67
2021/12/24 15:17:37;;;;;;;;;;;;;;;;;;4946221;28;19984;-66
2021/12/24 15:20:03;;;;;;;;;;;;;;;;;;4947601;28;20347;-67
2021/12/24 15:22:29;;;;;;;;;;;;;;;;;;4963571;28;19954;-67
2021/12/24 15:24:55;;;;;;;;;;;;;;;;;;4944206;28;19994;-66
2021/12/24 15:27:23;;;;;;;;;;;;;;;;;;4964041;28;20403;-67
2021/12/24 15:29:49;;;;;;;;;;;;;;;;;;4944775;28;19925;-67
2021/12/24 15:32:15;;;;;;;;;;;;;;;;;;4953154;28;20312;-66
2021/12/24 15:34:41;;;;;;;;;;;;;;;;;;4952667;28;19986;-66
2021/12/24 15:37:07;;;;;;;;;;;;;;;;;;4954239;28;20352;-66
2021/12/24 15:39:33;;;;;;;;;;;;;;;;;;4963188;28;20387;-67
2021/12/24 15:41:59;;;;;;;;;;;;;;;;;;4962034;28;20387;-67
2021/12/24 15:44:25;;;;;;;;;;;;;;;;;;4954072;28;20377;-67
2021/12/24 15:46:51;;;;;;;;;;;;;;;;;;4949663;28;19914;-67
2021/12/24 15:49:17;;;;;;;;;;;;;;;;;;4965100;28;21387;-67
2021/12/24 15:51:44;;;;;;;;;;;;;;;;;;4950073;28;19942;-67
2021/12/24 15:54:10;;;;;;;;;;;;;;;;;;4943913;28;19922;-67
2021/12/24 15:56:36;;;;;;;;;;;;;;;;;;4945873;28;19925;-67
2021/12/24 15:59:02;;;;;;;;;;;;;;;;;;4945451;28;19958;-67
2021/12/24 16:01:28;;;;;;;;;;;;;;;;;;5006023;23;19961;-67
2021/12/24 16:03:54;;;;;;;;;;;;;;;;;;4965164;28;19961;-67
2021/12/24 16:06:20;;;;;;;;;;;;;;;;;;4981088;28;20073;-67
2021/12/24 16:08:46;;;;;;;;;;;;;;;;;;4967657;28;20452;-67
2021/12/24 16:11:12;;;;;;;;;;;;;;;;;;4965267;28;19962;-66
2021/12/24 16:13:38;;;;;;;;;;;;;;;;;;4972635;28;19961;-67
2021/12/24 16:16:05;;;;;;;;;;;;;;;;;;4975143;28;20382;-67
2021/12/24 16:18:31;;;;;;;;;;;;;;;;;;4972139;28;19937;-67
2021/12/24 16:20:57;;;;;;;;;;;;;;;;;;4978277;28;19957;-67
2021/12/24 16:23:23;;;;;;;;;;;;;;;;;;4967766;28;19953;-67
2021/12/24 16:25:49;;;;;;;;;;;;;;;;;;4969940;28;20391;-67
2021/12/24 16:28:15;;;;;;;;;;;;;;;;;;4967963;28;19914;-67
2021/12/24 16:30:41;;;;;;;;;;;;;;;;;;4974803;28;20005;-67
2021/12/24 16:33:07;;;;;;;;;;;;;;;;;;4973946;28;19920;-67
2021/12/24 16:35:33;;;;;;;;;;;;;;;;;;4980433;28;19957;-67
2021/12/24 16:38:00;;;;;;;;;;;;;;;;;;4973986;28;20378;-67
2021/12/24 16:40:26;;;;;;;;;;;;;;;;;;4988106;28;20391;-67
2021/12/24 16:42:52;;;;;;;;;;;;;;;;;;4970349;28;19961;-67
2021/12/24 16:45:18;;;;;;;;;;;;;;;;;;4977897;28;19960;-67
2021/12/24 16:47:44;;;;;;;;;;;;;;;;;;4974573;28;20469;-67
2021/12/24 16:50:10;;;;;;;;;;;;;;;;;;4976279;28;19914;-67
2021/12/24 16:52:36;;;;;;;;;;;;;;;;;;4972771;28;19968;-68
2021/12/24 16:55:02;;;;;;;;;;;;;;;;;;4970383;28;19941;-67
2021/12/24 16:57:28;;;;;;;;;;;;;;;;;;4976647;28;19965;-67
2021/12/24 16:59:54;;;;;;;;;;;;;;;;;;4973088;28;20246;-67
2021/12/24 17:02:20;;;;;;;;;;;;;;;;;;4985184;28;19964;-67
2021/12/24 17:04:46;;;;;;;;;;;;;;;;;;4975397;28;19953;-67
2021/12/24 17:07:12;;;;;;;;;;;;;;;;;;4972367;28;20427;-67
2021/12/24 17:09:38;;;;;;;;;;;;;;;;;;4966103;28;20475;-67
2021/12/24 17:12:04;;;;;;;;;;;;;;;;;;4972789;28;19953;-67
2021/12/24 17:14:34;;;;;;;;;;;;;;;;;;4971630;28;19918;-67
2021/12/24 17:17:00;;;;;;;;;;;;;;;;;;4969994;28;20016;-67
2021/12/24 17:19:26;;;;;;;;;;;;;;;;;;4968639;28;20068;-67
2021/12/24 17:21:52;;;;;;;;;;;;;;;;;;4971084;28;19922;-67
2021/12/24 17:24:18;;;;;;;;;;;;;;;;;;4979468;28;19958;-67
2021/12/24 17:26:44;;;;;;;;;;;;;;;;;;4961795;28;20268;-67
2021/12/24 17:29:10;;;;;;;;;;;;;;;;;;4968014;28;20015;-67
2021/12/24 17:31:36;;;;;;;;;;;;;;;;;;4969971;28;20398;-67
2021/12/24 17:34:02;;;;;;;;;;;;;;;;;;4977885;28;19945;-67
2021/12/24 17:36:28;;;;;;;;;;;;;;;;;;4981599;28;19973;-67
2021/12/24 17:38:55;;;;;;;;;;;;;;;;;;4972168;28;19949;-67
2021/12/24 17:41:21;;;;;;;;;;;;;;;;;;4969566;28;20290;-67
2021/12/24 17:43:47;;;;;;;;;;;;;;;;;;4969030;28;20358;-67
2021/12/24 17:46:13;;;;;;;;;;;;;;;;;;4969135;28;19918;-67
2021/12/24 17:48:40;;;;;;;;;;;;;;;;;;4970206;28;20335;-67
2021/12/24 17:51:06;;;;;;;;;;;;;;;;;;4969891;28;20161;-67
2021/12/24 17:53:32;;;;;;;;;;;;;;;;;;4975823;28;20179;-67
2021/12/24 17:55:58;;;;;;;;;;;;;;;;;;4968586;28;19953;-67
2021/12/24 17:58:24;;;;;;;;;;;;;;;;;;4973194;28;19922;-67
2021/12/24 18:00:50;;;;;;;;;;;;;;;;;;4973136;28;20402;-67
2021/12/24 18:03:16;;;;;;;;;;;;;;;;;;4970635;28;20009;-67
2021/12/24 18:05:42;;;;;;;;;;;;;;;;;;4970324;28;19960;-67
2021/12/24 18:08:08;;;;;;;;;;;;;;;;;;4972581;28;20422;-67
2021/12/24 18:10:34;;;;;;;;;;;;;;;;;;4968057;28;20386;-67
2021/12/24 18:13:00;;;;;;;;;;;;;;;;;;4969623;28;19914;-67
2021/12/24 18:15:29;;;;;;;;;;;;;;;;;;4962818;28;19926;-67
2021/12/24 18:17:55;;;;;;;;;;;;;;;;;;4972211;28;19921;-67
2021/12/24 18:20:22;;;;;;;;;;;;;;;;;;4971776;28;19961;-67
2021/12/24 18:22:48;;;;;;;;;;;;;;;;;;4972517;28;19914;-67
2021/12/24 18:25:14;;;;;;;;;;;;;;;;;;4970769;28;19972;-67
2021/12/24 18:27:40;;;;;;;;;;;;;;;;;;4972143;28;19914;-67
2021/12/24 18:30:06;;;;;;;;;;;;;;;;;;4978133;28;19921;-67
2021/12/24 18:32:31;;;;;;;;;;;;;;;;;;4977283;28;19945;-67
2021/12/24 18:35:02;;;;;;;;;;;;;;;;;;4981757;28;20379;-67